Time;durP1;ratioP1;P1;durP2;ratioP2;P2;SDS_P1;SDS_P2;PMS_P1;PMS_P2;Temp;Humidity;BMP_temperature;BMP_pressure;BME280_temperature;BME280_humidity;BME280_pressure;Samples;Min_cycle;Max_cycle;Signal;HPM_P1;HPM_P2
2021/01/28 00:00:15;;;;;;;6.60;6.10;;;;;;;;;;4972897;28;20668;-46
2021/01/28 00:02:41;;;;;;;7.23;6.63;;;;;;;;;;4959972;28;20186;-47
2021/01/28 00:05:06;;;;;;;6.10;5.60;;;;;;;;;;4957623;28;20201;-47
2021/01/28 00:07:32;;;;;;;7.37;6.80;;;;;;;;;;4976839;28;20261;-48
2021/01/28 00:09:57;;;;;;;6.63;6.13;;;;;;;;;;4971318;28;20564;-47
2021/01/28 00:12:22;;;;;;;6.47;5.93;;;;;;;;;;4960910;28;20539;-47
2021/01/28 00:14:47;;;;;;;6.43;5.93;;;;;;;;;;4972679;28;20209;-47
2021/01/28 00:17:12;;;;;;;6.25;5.85;;;;;;;;;;4970068;28;20192;-47
2021/01/28 00:19:37;;;;;;;6.97;6.57;;;;;;;;;;4971627;28;20224;-47
2021/01/28 00:22:02;;;;;;;6.93;6.43;;;;;;;;;;4969805;28;20182;-47
2021/01/28 00:24:28;;;;;;;7.60;6.90;;;;;;;;;;4954843;28;20178;-47
2021/01/28 00:26:53;;;;;;;6.93;6.43;;;;;;;;;;4965165;28;20217;-47
2021/01/28 00:29:18;;;;;;;7.57;6.88;;;;;;;;;;4956227;28;20267;-47
2021/01/28 00:31:43;;;;;;;7.20;6.68;;;;;;;;;;4969068;28;20246;-47
2021/01/28 00:34:08;;;;;;;6.63;6.13;;;;;;;;;;4967082;28;20167;-47
2021/01/28 00:36:33;;;;;;;6.90;6.40;;;;;;;;;;4961832;28;20542;-48
2021/01/28 00:38:59;;;;;;;8.20;7.60;;;;;;;;;;4962808;28;20204;-47
2021/01/28 00:41:24;;;;;;;7.45;6.85;;;;;;;;;;4964690;28;20225;-46
2021/01/28 00:43:49;;;;;;;8.03;7.33;;;;;;;;;;4965986;28;20275;-45
2021/01/28 00:46:14;;;;;;;7.35;6.82;;;;;;;;;;4965606;28;20344;-47
2021/01/28 00:48:41;;;;;;;7.47;6.88;;;;;;;;;;4973378;28;20182;-47
2021/01/28 00:51:06;;;;;;;7.10;6.60;;;;;;;;;;4972321;28;20611;-48
2021/01/28 00:53:31;;;;;;;7.18;6.60;;;;;;;;;;4965587;28;21441;-47
2021/01/28 00:55:56;;;;;;;7.53;6.93;;;;;;;;;;4956344;28;20215;-47
2021/01/28 00:58:22;;;;;;;7.00;6.40;;;;;;;;;;4973384;28;20201;-47
2021/01/28 01:00:48;;;;;;;6.20;5.80;;;;;;;;;;4968498;28;20189;-47
2021/01/28 01:03:15;;;;;;;6.70;6.10;;;;;;;;;;4971086;28;20594;-48
2021/01/28 01:05:40;;;;;;;6.83;6.33;;;;;;;;;;4964584;28;20244;-48
2021/01/28 01:08:07;;;;;;;6.90;6.33;;;;;;;;;;4972082;28;21245;-47
2021/01/28 01:10:35;;;;;;;7.47;6.87;;;;;;;;;;4955167;28;20195;-47
2021/01/28 01:13:00;;;;;;;6.80;6.20;;;;;;;;;;4970936;28;20590;-48
2021/01/28 01:15:26;;;;;;;6.57;6.07;;;;;;;;;;4971342;28;20636;-48
2021/01/28 01:17:51;;;;;;;6.17;5.67;;;;;;;;;;4973363;28;20186;-48
2021/01/28 01:20:18;;;;;;;6.50;6.00;;;;;;;;;;4957619;28;20182;-48
2021/01/28 01:22:43;;;;;;;7.20;6.60;;;;;;;;;;4967482;28;20174;-47
2021/01/28 01:25:09;;;;;;;6.80;6.30;;;;;;;;;;4971475;28;20645;-47
2021/01/28 01:27:34;;;;;;;7.00;6.40;;;;;;;;;;4971162;28;20182;-48
2021/01/28 01:29:59;;;;;;;6.20;5.78;;;;;;;;;;4960786;28;20357;-48
2021/01/28 01:32:24;;;;;;;6.65;6.15;;;;;;;;;;4961345;28;20184;-48
2021/01/28 01:34:50;;;;;;;6.50;6.00;;;;;;;;;;4970684;28;20548;-47
2021/01/28 01:37:15;;;;;;;6.70;6.20;;;;;;;;;;4972708;28;20205;-48
2021/01/28 01:39:40;;;;;;;7.20;6.60;;;;;;;;;;4970769;28;20197;-47
2021/01/28 01:42:06;;;;;;;6.57;6.07;;;;;;;;;;4970521;28;20232;-47
2021/01/28 01:44:31;;;;;;;6.80;6.30;;;;;;;;;;4966151;28;20907;-48
2021/01/28 01:47:18;;;;;;;7.20;6.60;;;;;;;;;;4972287;28;20206;-47
2021/01/28 01:49:44;;;;;;;6.20;5.70;;;;;;;;;;4967146;28;20701;-47
2021/01/28 01:52:09;;;;;;;5.97;5.50;;;;;;;;;;4966134;28;20657;-48
2021/01/28 01:54:35;;;;;;;5.90;5.50;;;;;;;;;;4968621;28;21159;-48
2021/01/28 01:57:03;;;;;;;6.33;5.83;;;;;;;;;;4972109;28;20186;-48
2021/01/28 01:59:31;;;;;;;5.50;5.10;;;;;;;;;;4965782;28;20952;-47
2021/01/28 02:02:00;;;;;;;5.70;5.30;;;;;;;;;;4967345;28;20609;-48
2021/01/28 02:04:27;;;;;;;8.93;5.47;;;;;;;;;;4962235;28;20599;-47
2021/01/28 02:09:56;;;;;;;5.23;4.83;;;;;;;;;;4968252;28;20629;-47
2021/01/28 02:12:21;;;;;;;5.20;4.80;;;;;;;;;;4957012;28;20591;-47
2021/01/28 02:14:46;;;;;;;5.55;5.15;;;;;;;;;;4955386;28;20970;-48
2021/01/28 02:17:19;;;;;;;5.43;5.03;;;;;;;;;;4966087;28;20193;-48
2021/01/28 02:19:47;;;;;;;5.23;4.83;;;;;;;;;;4971189;28;20182;-48
2021/01/28 02:28:18;;;;;;;5.20;4.70;;;;;;;;;;4955261;28;20733;-48
2021/01/28 02:30:46;;;;;;;6.93;6.43;;;;;;;;;;4962062;28;20694;-48
2021/01/28 02:33:11;;;;;;;5.37;4.97;;;;;;;;;;4956277;28;20675;-47
2021/01/28 02:35:37;;;;;;;6.97;6.40;;;;;;;;;;4962687;28;20597;-47
2021/01/28 02:38:04;;;;;;;5.80;5.33;;;;;;;;;;4969040;28;20640;-47
2021/01/28 02:40:30;;;;;;;5.27;4.87;;;;;;;;;;4956780;28;20690;-48
2021/01/28 02:42:55;;;;;;;5.23;4.83;;;;;;;;;;4970980;28;21239;-48
2021/01/28 02:45:23;;;;;;;5.10;4.73;;;;;;;;;;4958297;28;20210;-47
2021/01/28 02:47:53;;;;;;;5.40;5.00;;;;;;;;;;4957664;28;20173;-48
2021/01/28 02:50:18;;;;;;;5.40;5.00;;;;;;;;;;4963706;28;20599;-47
2021/01/28 02:52:43;;;;;;;5.32;4.93;;;;;;;;;;4971327;28;20694;-47
2021/01/28 02:55:08;;;;;;;5.15;4.75;;;;;;;;;;4969529;28;20268;-46
2021/01/28 02:57:33;;;;;;;4.87;4.50;;;;;;;;;;4962287;28;20181;-46
2021/01/28 02:59:58;;;;;;;4.60;4.30;;;;;;;;;;4958460;28;20225;-47
2021/01/28 03:02:24;;;;;;;5.45;5.05;;;;;;;;;;4966806;28;20212;-47
2021/01/28 03:04:49;;;;;;;4.68;4.38;;;;;;;;;;4971311;28;20178;-48
2021/01/28 03:07:14;;;;;;;5.03;4.63;;;;;;;;;;4968766;28;20183;-46
2021/01/28 03:09:40;;;;;;;5.50;5.10;;;;;;;;;;4969823;28;20535;-47
2021/01/28 03:12:06;;;;;;;4.60;4.30;;;;;;;;;;4967629;28;20202;-45
2021/01/28 03:14:31;;;;;;;6.10;5.50;;;;;;;;;;4951987;28;20176;-46
2021/01/28 03:16:56;;;;;;;5.00;4.60;;;;;;;;;;4970032;28;20942;-46
2021/01/28 03:19:22;;;;;;;4.85;4.55;;;;;;;;;;4948586;29;20992;-46
2021/01/28 03:21:47;;;;;;;4.60;4.30;;;;;;;;;;4964624;28;20556;-47
2021/01/28 03:24:12;;;;;;;4.70;4.40;;;;;;;;;;4964245;28;20639;-47
2021/01/28 03:26:38;;;;;;;4.82;4.45;;;;;;;;;;4970560;28;20202;-47
2021/01/28 03:29:04;;;;;;;4.87;4.43;;;;;;;;;;4961864;28;20189;-46
2021/01/28 03:31:29;;;;;;;5.67;5.20;;;;;;;;;;4968474;28;20178;-47
2021/01/28 03:33:54;;;;;;;6.53;6.03;;;;;;;;;;4971046;28;20581;-47
2021/01/28 03:36:19;;;;;;;5.88;5.43;;;;;;;;;;4967173;28;20177;-47
2021/01/28 03:38:44;;;;;;;6.30;5.80;;;;;;;;;;4968216;28;20203;-48
2021/01/28 03:41:10;;;;;;;5.50;5.10;;;;;;;;;;4964490;28;20639;-47
2021/01/28 03:43:35;;;;;;;4.95;4.50;;;;;;;;;;4970078;28;20648;-48
2021/01/28 03:46:00;;;;;;;5.80;5.40;;;;;;;;;;4964169;28;20209;-48
2021/01/28 03:48:25;;;;;;;5.30;4.90;;;;;;;;;;4968666;28;20222;-49
2021/01/28 03:50:50;;;;;;;5.00;4.63;;;;;;;;;;4962481;28;20210;-47
2021/01/28 03:53:15;;;;;;;4.93;4.53;;;;;;;;;;4958176;28;20229;-48
2021/01/28 03:55:41;;;;;;;4.65;4.35;;;;;;;;;;4967094;28;20222;-48
2021/01/28 03:58:06;;;;;;;5.20;4.82;;;;;;;;;;4953840;28;20182;-48
2021/01/28 04:00:32;;;;;;;5.27;4.87;;;;;;;;;;4955142;28;20267;-48
2021/01/28 04:03:01;;;;;;;4.73;4.37;;;;;;;;;;4962855;28;20179;-48
2021/01/28 04:05:27;;;;;;;5.23;4.73;;;;;;;;;;4969558;28;20740;-48
2021/01/28 04:07:52;;;;;;;5.30;4.90;;;;;;;;;;4967174;28;20681;-48
2021/01/28 04:10:20;;;;;;;5.40;5.00;;;;;;;;;;4970312;28;20589;-48
2021/01/28 04:12:46;;;;;;;5.73;5.30;;;;;;;;;;4962048;28;20208;-48
2021/01/28 04:15:12;;;;;;;4.73;4.43;;;;;;;;;;4964419;28;20613;-48
2021/01/28 04:17:37;;;;;;;5.00;4.60;;;;;;;;;;4964593;28;20172;-48
2021/01/28 04:20:03;;;;;;;4.30;4.00;;;;;;;;;;4965344;28;20660;-48
2021/01/28 04:22:28;;;;;;;4.50;4.10;;;;;;;;;;4966388;28;20590;-47
2021/01/28 04:24:53;;;;;;;4.90;4.50;;;;;;;;;;4958173;28;20603;-47
2021/01/28 04:27:18;;;;;;;3.88;3.58;;;;;;;;;;4961739;28;20186;-47
2021/01/28 04:29:44;;;;;;;3.73;3.53;;;;;;;;;;4958481;28;20244;-48
2021/01/28 04:32:09;;;;;;;4.00;3.70;;;;;;;;;;4963382;28;20176;-48
2021/01/28 04:34:34;;;;;;;4.23;3.40;;;;;;;;;;4960557;28;20172;-48
2021/01/28 04:37:00;;;;;;;3.42;3.22;;;;;;;;;;4964328;28;20178;-48
2021/01/28 04:39:26;;;;;;;4.43;4.03;;;;;;;;;;4968032;28;20325;-48
2021/01/28 04:41:51;;;;;;;3.97;3.77;;;;;;;;;;4968230;28;20737;-47
2021/01/28 04:44:16;;;;;;;4.03;3.73;;;;;;;;;;4974170;28;20187;-47
2021/01/28 04:46:43;;;;;;;4.67;4.30;;;;;;;;;;4970473;28;20277;-48
2021/01/28 04:49:11;;;;;;;4.47;4.07;;;;;;;;;;4964372;28;20202;-47
2021/01/28 04:51:36;;;;;;;4.97;4.27;;;;;;;;;;4953996;28;21030;-49
2021/01/28 04:54:09;;;;;;;4.63;4.32;;;;;;;;;;4959593;28;20724;-48
2021/01/28 04:56:34;;;;;;;5.07;4.57;;;;;;;;;;4957850;28;20191;-48
2021/01/28 04:59:08;;;;;;;4.03;3.83;;;;;;;;;;4966638;28;20690;-48
2021/01/28 05:01:33;;;;;;;4.77;4.37;;;;;;;;;;4959873;28;20257;-47
2021/01/28 05:04:00;;;;;;;4.40;4.10;;;;;;;;;;4970510;28;21596;-47
2021/01/28 05:06:25;;;;;;;5.07;4.67;;;;;;;;;;4964358;28;20199;-48
2021/01/28 05:08:50;;;;;;;5.28;4.88;;;;;;;;;;4967972;28;20611;-48
2021/01/28 05:11:22;;;;;;;4.67;4.30;;;;;;;;;;4970202;28;20270;-48
2021/01/28 05:13:47;;;;;;;4.50;4.20;;;;;;;;;;4963743;28;20198;-48
2021/01/28 05:16:30;;;;;;;5.50;4.83;;;;;;;;;;4964024;28;20622;-48
2021/01/28 05:18:57;;;;;;;5.50;5.03;;;;;;;;;;4961646;28;20222;-48
2021/01/28 05:21:23;;;;;;;4.50;4.20;;;;;;;;;;4961295;28;21001;-48
2021/01/28 05:23:48;;;;;;;5.00;4.60;;;;;;;;;;4970727;28;21165;-49
2021/01/28 05:26:27;;;;;;;5.50;5.00;;;;;;;;;;4972287;28;20649;-48
2021/01/28 05:28:53;;;;;;;4.93;4.63;;;;;;;;;;4969128;28;20209;-48
2021/01/28 05:31:25;;;;;;;5.13;4.73;;;;;;;;;;4966916;28;21030;-49
2021/01/28 05:33:50;;;;;;;5.97;5.47;;;;;;;;;;4959399;28;20980;-49
2021/01/28 05:36:20;;;;;;;5.03;4.63;;;;;;;;;;4962892;28;20652;-48
2021/01/28 05:38:47;;;;;;;5.57;4.90;;;;;;;;;;4970187;28;20195;-50
2021/01/28 05:41:24;;;;;;;5.30;4.90;;;;;;;;;;4971849;28;20680;-48
2021/01/28 05:43:49;;;;;;;5.40;4.97;;;;;;;;;;4972105;28;20613;-47
2021/01/28 05:46:14;;;;;;;5.18;4.20;;;;;;;;;;4972219;28;20691;-48
2021/01/28 05:48:39;;;;;;;4.50;4.10;;;;;;;;;;4969952;28;20201;-47
2021/01/28 05:51:12;;;;;;;5.83;5.17;;;;;;;;;;4970295;28;20175;-48
2021/01/28 05:53:38;;;;;;;5.20;4.80;;;;;;;;;;4970940;28;20213;-48
2021/01/28 05:56:07;;;;;;;5.33;4.83;;;;;;;;;;4972195;28;20621;-48
2021/01/28 05:58:32;;;;;;;5.60;5.10;;;;;;;;;;4969652;28;20262;-47
2021/01/28 06:01:01;;;;;;;4.63;4.22;;;;;;;;;;4970018;28;20609;-47
2021/01/28 06:03:45;;;;;;;5.17;4.77;;;;;;;;;;4954673;28;20238;-48
2021/01/28 06:06:23;;;;;;;5.80;4.80;;;;;;;;;;4961521;28;20679;-48
2021/01/28 06:09:00;;;;;;;4.87;4.57;;;;;;;;;;4963094;28;20621;-48
2021/01/28 06:11:31;;;;;;;5.67;5.00;;;;;;;;;;4967088;28;20605;-48
2021/01/28 06:13:56;;;;;;;5.60;5.20;;;;;;;;;;4968026;28;21014;-48
2021/01/28 06:16:29;;;;;;;5.63;5.13;;;;;;;;;;4968563;28;21078;-48
2021/01/28 06:19:01;;;;;;;6.10;5.50;;;;;;;;;;4970794;28;20273;-48
2021/01/28 06:21:34;;;;;;;5.13;4.73;;;;;;;;;;4966708;28;20962;-48
2021/01/28 06:24:17;;;;;;;4.90;4.50;;;;;;;;;;4960842;28;20709;-48
2021/01/28 06:27:05;;;;;;;5.70;5.30;;;;;;;;;;4960892;28;20661;-48
2021/01/28 06:29:33;;;;;;;6.00;5.40;;;;;;;;;;4954936;28;20611;-47
2021/01/28 06:32:09;;;;;;;5.93;5.40;;;;;;;;;;4965763;28;20602;-47
2021/01/28 06:34:37;;;;;;;7.53;5.80;;;;;;;;;;4967940;28;20593;-47
2021/01/28 06:37:12;;;;;;;7.40;5.53;;;;;;;;;;4967145;28;20696;-47
2021/01/28 06:39:42;;;;;;;6.30;5.70;;;;;;;;;;4964596;28;21001;-47
2021/01/28 06:42:19;;;;;;;6.20;5.60;;;;;;;;;;4968163;28;20967;-48
2021/01/28 06:44:56;;;;;;;7.43;6.73;;;;;;;;;;4963560;28;24538;-47
2021/01/28 06:47:27;;;;;;;6.70;5.93;;;;;;;;;;4964070;28;21037;-47
2021/01/28 06:50:02;;;;;;;7.40;6.80;;;;;;;;;;4960452;28;24414;-48
2021/01/28 06:52:31;;;;;;;7.10;6.50;;;;;;;;;;4962065;28;24781;-46
2021/01/28 06:54:56;;;;;;;6.13;5.63;;;;;;;;;;4966500;28;20625;-48
2021/01/28 06:57:24;;;;;;;7.35;6.75;;;;;;;;;;4968744;28;20602;-47
2021/01/28 06:59:49;;;;;;;6.33;5.73;;;;;;;;;;4966363;28;20210;-47
2021/01/28 07:02:20;;;;;;;6.33;5.73;;;;;;;;;;4966448;28;20781;-47
2021/01/28 07:04:49;;;;;;;6.33;5.73;;;;;;;;;;4967933;28;20175;-47
2021/01/28 07:07:18;;;;;;;6.43;5.83;;;;;;;;;;4967907;28;20627;-47
2021/01/28 07:09:47;;;;;;;6.73;6.13;;;;;;;;;;4968441;28;20593;-47
2021/01/28 07:12:17;;;;;;;6.63;5.70;;;;;;;;;;4969656;28;20602;-47
2021/01/28 07:14:46;;;;;;;6.57;5.80;;;;;;;;;;4970501;28;20609;-47
2021/01/28 07:17:20;;;;;;;6.80;5.97;;;;;;;;;;4970425;28;20654;-46
2021/01/28 07:19:53;;;;;;;6.10;5.50;;;;;;;;;;4966728;28;20610;-46
2021/01/28 07:22:38;;;;;;;6.73;6.10;;;;;;;;;;4968487;28;21180;-46
2021/01/28 07:25:21;;;;;;;6.70;6.00;;;;;;;;;;4967952;28;20598;-48
2021/01/28 07:27:53;;;;;;;5.97;5.43;;;;;;;;;;4958438;28;20634;-45
2021/01/28 07:30:37;;;;;;;6.10;5.60;;;;;;;;;;4966178;28;20631;-47
2021/01/28 07:33:02;;;;;;;6.40;5.80;;;;;;;;;;4968099;28;20614;-47
2021/01/28 07:35:35;;;;;;;6.37;5.87;;;;;;;;;;4969830;28;20689;-47
2021/01/28 07:38:19;;;;;;;6.50;6.00;;;;;;;;;;4969601;28;20197;-46
2021/01/28 07:40:55;;;;;;;5.87;5.37;;;;;;;;;;4966461;28;20657;-46
2021/01/28 07:43:27;;;;;;;6.60;6.00;;;;;;;;;;4968868;28;20609;-46
2021/01/28 07:46:11;;;;;;;8.00;6.60;;;;;;;;;;4969626;28;21526;-47
2021/01/28 07:48:36;;;;;;;7.17;6.47;;;;;;;;;;4968926;28;20955;-47
2021/01/28 07:51:21;;;;;;;7.13;6.43;;;;;;;;;;4967849;28;20625;-47
2021/01/28 07:53:52;;;;;;;7.73;6.80;;;;;;;;;;4969673;28;20187;-48
2021/01/28 07:56:35;;;;;;;7.67;6.80;;;;;;;;;;4967608;28;20915;-47
2021/01/28 07:59:03;;;;;;;7.20;6.43;;;;;;;;;;4969601;28;20644;-48
2021/01/28 08:01:29;;;;;;;6.93;6.23;;;;;;;;;;4958421;28;20600;-48
2021/01/28 08:04:05;;;;;;;6.50;5.97;;;;;;;;;;4969558;28;20657;-48
2021/01/28 08:06:32;;;;;;;7.97;7.17;;;;;;;;;;4967003;28;20209;-47
2021/01/28 08:09:07;;;;;;;6.03;5.43;;;;;;;;;;4970049;28;20586;-48
2021/01/28 08:11:33;;;;;;;6.80;6.20;;;;;;;;;;4967313;28;20633;-47
2021/01/28 08:13:58;;;;;;;7.77;6.97;;;;;;;;;;4966682;28;20640;-46
2021/01/28 08:16:23;;;;;;;6.77;5.87;;;;;;;;;;4971539;28;20183;-49
2021/01/28 08:19:07;;;;;;;6.90;6.30;;;;;;;;;;4972877;28;20182;-47
2021/01/28 08:21:32;;;;;;;7.10;6.07;;;;;;;;;;4971150;28;20183;-49
2021/01/28 08:24:08;;;;;;;6.60;5.70;;;;;;;;;;4967139;28;20611;-48
2021/01/28 08:26:38;;;;;;;7.70;6.90;;;;;;;;;;4960287;28;20243;-47
2021/01/28 08:29:05;;;;;;;7.00;6.33;;;;;;;;;;4967817;28;20614;-47
2021/01/28 08:31:44;;;;;;;6.20;5.53;;;;;;;;;;4963664;28;21496;-47
2021/01/28 08:34:13;;;;;;;8.40;5.90;;;;;;;;;;4970998;28;20680;-47
2021/01/28 08:36:53;;;;;;;5.40;4.80;;;;;;;;;;4964848;28;20616;-47
2021/01/28 08:39:19;;;;;;;6.53;5.67;;;;;;;;;;4967796;28;20716;-47
2021/01/28 08:41:46;;;;;;;5.73;4.90;;;;;;;;;;4965394;28;21736;-48
2021/01/28 08:44:13;;;;;;;5.40;4.90;;;;;;;;;;4972453;28;20605;-48
2021/01/28 08:46:40;;;;;;;7.27;5.73;;;;;;;;;;4972826;28;20646;-47
2021/01/28 08:49:18;;;;;;;6.33;5.80;;;;;;;;;;4969902;28;20593;-47
2021/01/28 08:51:47;;;;;;;6.87;6.27;;;;;;;;;;4954396;28;20593;-47
2021/01/28 08:54:15;;;;;;;7.17;6.50;;;;;;;;;;4957167;28;20578;-47
2021/01/28 08:56:40;;;;;;;6.90;5.40;;;;;;;;;;4972786;28;20574;-47
2021/01/28 08:59:15;;;;;;;7.30;6.60;;;;;;;;;;4971406;28;20632;-47
2021/01/28 09:01:42;;;;;;;8.27;5.87;;;;;;;;;;4968782;28;20200;-47
2021/01/28 09:04:11;;;;;;;6.70;5.90;;;;;;;;;;4972598;28;21245;-47
2021/01/28 09:06:44;;;;;;;6.30;5.27;;;;;;;;;;4966265;28;20641;-48
2021/01/28 09:09:20;;;;;;;8.33;5.80;;;;;;;;;;4971953;28;20592;-48
2021/01/28 09:11:45;;;;;;;7.70;6.27;;;;;;;;;;4956773;28;20606;-47
2021/01/28 09:14:14;;;;;;;6.77;6.13;;;;;;;;;;4971632;28;20582;-48
2021/01/28 09:16:40;;;;;;;8.90;6.10;;;;;;;;;;4971566;28;20284;-47
2021/01/28 09:19:07;;;;;;;6.90;6.20;;;;;;;;;;4971848;28;20605;-47
2021/01/28 09:21:37;;;;;;;6.13;5.40;;;;;;;;;;4965708;28;20186;-46
2021/01/28 09:24:04;;;;;;;6.80;6.10;;;;;;;;;;4968477;28;20970;-47
2021/01/28 09:26:36;;;;;;;7.10;6.07;;;;;;;;;;4969899;28;20683;-47
2021/01/28 09:29:15;;;;;;;9.67;6.50;;;;;;;;;;4970963;28;20584;-47
2021/01/28 09:31:40;;;;;;;7.37;6.67;;;;;;;;;;4968404;28;20769;-47
2021/01/28 09:34:23;;;;;;;8.33;6.90;;;;;;;;;;4973204;28;20597;-47
2021/01/28 09:36:56;;;;;;;7.73;6.80;;;;;;;;;;4971213;28;20191;-47
2021/01/28 09:39:27;;;;;;;7.90;6.27;;;;;;;;;;4969794;28;20645;-47
2021/01/28 09:41:53;;;;;;;7.60;6.30;;;;;;;;;;4968185;28;20689;-46
2021/01/28 09:44:27;;;;;;;8.63;7.80;;;;;;;;;;4972053;28;20628;-47
2021/01/28 09:47:20;;;;;;;8.70;7.17;;;;;;;;;;4971199;28;20213;-49
2021/01/28 09:49:46;;;;;;;7.50;6.80;;;;;;;;;;4968253;28;20577;-47
2021/01/28 09:52:17;;;;;;;9.27;8.37;;;;;;;;;;4971719;28;21152;-46
2021/01/28 09:54:42;;;;;;;8.37;7.40;;;;;;;;;;4969670;28;20714;-47
2021/01/28 09:57:07;;;;;;;8.20;7.40;;;;;;;;;;4970465;28;20693;-47
2021/01/28 09:59:33;;;;;;;9.27;8.35;;;;;;;;;;4971748;28;20206;-47
2021/01/28 10:01:58;;;;;;;7.97;7.18;;;;;;;;;;4970382;28;20241;-47
2021/01/28 10:04:23;;;;;;;8.20;7.40;;;;;;;;;;4969066;28;21924;-47
2021/01/28 10:06:48;;;;;;;12.43;11.13;;;;;;;;;;4967185;28;20244;-47
2021/01/28 10:09:13;;;;;;;9.10;8.10;;;;;;;;;;4971368;28;20173;-47
2021/01/28 10:11:39;;;;;;;7.75;6.93;;;;;;;;;;4969138;28;20262;-48
2021/01/28 10:14:04;;;;;;;8.57;7.73;;;;;;;;;;4971217;28;20214;-49
2021/01/28 10:16:31;;;;;;;12.00;7.72;;;;;;;;;;4968996;28;20656;-48
2021/01/28 10:18:56;;;;;;;11.10;7.73;;;;;;;;;;4970853;28;20189;-47
2021/01/28 10:21:21;;;;;;;11.33;8.80;;;;;;;;;;4968406;28;20601;-47
2021/01/28 10:23:46;;;;;;;8.83;7.80;;;;;;;;;;4971045;28;20178;-46
2021/01/28 10:26:12;;;;;;;8.53;7.50;;;;;;;;;;4968974;28;20207;-47
2021/01/28 10:28:37;;;;;;;8.95;6.80;;;;;;;;;;4970535;28;20176;-49
2021/01/28 10:31:06;;;;;;;9.45;7.65;;;;;;;;;;4968957;28;20234;-47
2021/01/28 10:33:31;;;;;;;9.67;8.60;;;;;;;;;;4969570;28;20178;-48
2021/01/28 10:35:56;;;;;;;11.32;10.18;;;;;;;;;;4950883;28;20596;-47
2021/01/28 10:38:21;;;;;;;11.13;9.93;;;;;;;;;;4961717;28;20190;-48
2021/01/28 10:40:46;;;;;;;9.37;8.13;;;;;;;;;;4967190;28;20247;-47
2021/01/28 10:43:12;;;;;;;10.03;8.17;;;;;;;;;;4968672;28;20193;-48
2021/01/28 10:45:38;;;;;;;9.93;8.05;;;;;;;;;;4967199;28;20574;-47
2021/01/28 10:48:04;;;;;;;10.17;7.40;;;;;;;;;;4970089;28;20187;-47
2021/01/28 10:50:30;;;;;;;8.47;7.53;;;;;;;;;;4965844;28;20598;-47
2021/01/28 10:52:55;;;;;;;8.77;7.57;;;;;;;;;;4963066;28;20584;-49
2021/01/28 10:55:22;;;;;;;8.40;7.60;;;;;;;;;;4968086;28;20190;-48
2021/01/28 10:57:47;;;;;;;9.77;8.77;;;;;;;;;;4968240;28;20179;-47
2021/01/28 11:00:13;;;;;;;12.50;9.02;;;;;;;;;;4966544;28;20611;-48
2021/01/28 11:02:38;;;;;;;8.87;7.70;;;;;;;;;;4967734;28;20300;-48
2021/01/28 11:05:11;;;;;;;10.70;8.47;;;;;;;;;;4969138;28;20594;-47
2021/01/28 11:07:36;;;;;;;9.50;8.23;;;;;;;;;;4969955;28;20190;-48
2021/01/28 11:10:05;;;;;;;9.93;8.60;;;;;;;;;;4970866;28;20602;-48
2021/01/28 11:12:30;;;;;;;13.17;9.03;;;;;;;;;;4964996;28;20620;-49
2021/01/28 11:14:55;;;;;;;9.32;8.43;;;;;;;;;;4967186;28;21163;-48
2021/01/28 11:17:20;;;;;;;8.70;7.88;;;;;;;;;;4966462;28;20180;-47
2021/01/28 11:19:46;;;;;;;9.90;8.70;;;;;;;;;;4969000;28;20170;-48
2021/01/28 11:22:11;;;;;;;11.30;9.33;;;;;;;;;;4964928;28;20358;-48
2021/01/28 11:24:36;;;;;;;14.30;10.15;;;;;;;;;;4969865;28;20675;-48
2021/01/28 11:27:01;;;;;;;11.30;10.10;;;;;;;;;;4969079;28;20264;-47
2021/01/28 11:29:27;;;;;;;9.93;8.93;;;;;;;;;;4953620;28;20174;-49
2021/01/28 11:31:53;;;;;;;12.30;9.87;;;;;;;;;;4964103;28;20290;-48
2021/01/28 11:34:18;;;;;;;14.23;11.53;;;;;;;;;;4970040;28;20186;-48
2021/01/28 11:36:44;;;;;;;12.75;11.40;;;;;;;;;;4960091;28;20609;-48
2021/01/28 11:39:10;;;;;;;15.00;12.50;;;;;;;;;;4970390;28;20577;-48
2021/01/28 11:41:35;;;;;;;15.57;13.77;;;;;;;;;;4968127;28;20995;-48
2021/01/28 11:44:00;;;;;;;14.20;12.80;;;;;;;;;;4970097;28;20702;-47
2021/01/28 11:46:25;;;;;;;14.50;13.00;;;;;;;;;;4966934;28;20267;-47
2021/01/28 11:48:50;;;;;;;16.63;13.70;;;;;;;;;;4969197;28;20185;-48
2021/01/28 11:51:16;;;;;;;16.88;15.15;;;;;;;;;;4967132;28;20243;-46
2021/01/28 11:53:41;;;;;;;14.90;13.47;;;;;;;;;;4969732;28;20182;-46
2021/01/28 11:56:06;;;;;;;18.03;15.77;;;;;;;;;;4970209;28;20237;-47
2021/01/28 11:58:31;;;;;;;19.27;17.33;;;;;;;;;;4969794;28;20183;-48
2021/01/28 12:00:56;;;;;;;18.73;16.77;;;;;;;;;;4967750;28;20605;-47
2021/01/28 12:03:21;;;;;;;17.13;15.23;;;;;;;;;;4966634;28;20549;-48
2021/01/28 12:05:47;;;;;;;18.20;16.20;;;;;;;;;;4968236;28;20854;-48
2021/01/28 12:08:12;;;;;;;20.67;15.80;;;;;;;;;;4968653;28;20212;-48
2021/01/28 12:10:37;;;;;;;18.40;16.40;;;;;;;;;;4969474;28;20273;-49
2021/01/28 12:13:03;;;;;;;18.03;16.30;;;;;;;;;;4965808;28;20188;-48
2021/01/28 12:15:28;;;;;;;19.83;17.47;;;;;;;;;;4969664;28;20245;-48
2021/01/28 12:17:54;;;;;;;19.97;17.97;;;;;;;;;;4969875;28;20208;-48
2021/01/28 12:20:20;;;;;;;18.97;16.97;;;;;;;;;;4969843;28;20256;-48
2021/01/28 12:22:46;;;;;;;20.80;17.90;;;;;;;;;;4966156;28;20562;-48
2021/01/28 12:25:11;;;;;;;19.50;16.70;;;;;;;;;;4969501;28;20601;-48
2021/01/28 12:27:36;;;;;;;21.13;18.93;;;;;;;;;;4969264;28;20675;-48
2021/01/28 12:30:03;;;;;;;19.13;17.17;;;;;;;;;;4969694;28;20233;-47
2021/01/28 12:32:29;;;;;;;18.43;16.53;;;;;;;;;;4965482;28;20189;-48
2021/01/28 12:34:54;;;;;;;21.67;17.93;;;;;;;;;;4967941;28;20597;-47
2021/01/28 12:37:19;;;;;;;19.33;16.77;;;;;;;;;;4963448;28;20660;-48
2021/01/28 12:39:44;;;;;;;18.17;16.38;;;;;;;;;;4968652;28;20567;-47
2021/01/28 12:42:10;;;;;;;19.73;17.67;;;;;;;;;;4967797;28;20685;-47
2021/01/28 12:44:35;;;;;;;20.03;17.93;;;;;;;;;;4961633;28;20176;-47
2021/01/28 12:47:00;;;;;;;21.50;19.38;;;;;;;;;;4965198;28;20236;-48
2021/01/28 12:49:25;;;;;;;19.20;17.30;;;;;;;;;;4969513;28;20266;-48
2021/01/28 12:51:53;;;;;;;19.80;17.17;;;;;;;;;;4967397;28;20190;-48
2021/01/28 12:54:18;;;;;;;20.07;17.70;;;;;;;;;;4963479;28;20179;-49
2021/01/28 12:56:43;;;;;;;20.23;18.33;;;;;;;;;;4967551;28;20709;-47
2021/01/28 12:59:08;;;;;;;22.10;18.50;;;;;;;;;;4967754;28;20588;-48
2021/01/28 13:01:34;;;;;;;22.37;18.77;;;;;;;;;;4968022;28;20281;-48
2021/01/28 13:03:59;;;;;;;20.90;18.85;;;;;;;;;;4975844;28;20186;-48
2021/01/28 13:06:24;;;;;;;20.25;18.10;;;;;;;;;;4970139;28;20203;-48
2021/01/28 13:08:49;;;;;;;20.63;18.43;;;;;;;;;;4959866;28;20183;-48
2021/01/28 13:11:14;;;;;;;21.83;19.52;;;;;;;;;;4970500;28;20182;-47
2021/01/28 13:13:40;;;;;;;24.23;20.25;;;;;;;;;;4964145;28;20190;-48
2021/01/28 13:16:05;;;;;;;18.80;16.87;;;;;;;;;;4971189;28;20265;-48
2021/01/28 13:18:30;;;;;;;21.13;18.93;;;;;;;;;;4953546;28;20180;-47
2021/01/28 13:20:56;;;;;;;20.25;18.23;;;;;;;;;;4950739;28;20439;-49
2021/01/28 13:23:21;;;;;;;23.80;20.10;;;;;;;;;;4967187;28;20187;-48
2021/01/28 13:25:46;;;;;;;20.43;18.43;;;;;;;;;;4969791;28;20301;-48
2021/01/28 13:28:12;;;;;;;18.93;17.03;;;;;;;;;;4968921;28;20209;-48
2021/01/28 13:30:37;;;;;;;18.77;16.83;;;;;;;;;;4969438;28;20209;-49
2021/01/28 13:33:02;;;;;;;20.33;18.10;;;;;;;;;;4967219;28;20895;-48
2021/01/28 13:35:27;;;;;;;24.23;19.00;;;;;;;;;;4968555;28;20653;-48
2021/01/28 13:37:53;;;;;;;21.20;18.83;;;;;;;;;;4968651;28;20213;-48
2021/01/28 13:40:19;;;;;;;20.03;17.70;;;;;;;;;;4969211;28;20253;-48
2021/01/28 13:42:44;;;;;;;19.40;17.13;;;;;;;;;;4964123;28;20239;-48
2021/01/28 13:45:12;;;;;;;19.77;17.52;;;;;;;;;;4957216;28;20648;-48
2021/01/28 13:47:37;;;;;;;19.23;17.30;;;;;;;;;;4968170;28;20286;-48
2021/01/28 13:50:03;;;;;;;18.63;16.70;;;;;;;;;;4963361;28;20633;-48
2021/01/28 13:52:28;;;;;;;18.70;16.87;;;;;;;;;;4965644;28;20178;-48
2021/01/28 13:54:53;;;;;;;19.80;17.80;;;;;;;;;;4966537;28;20612;-48
2021/01/28 13:57:18;;;;;;;18.85;16.95;;;;;;;;;;4968901;28;20186;-48
2021/01/28 13:59:43;;;;;;;19.50;17.17;;;;;;;;;;4958721;28;20186;-48
2021/01/28 14:02:09;;;;;;;20.15;18.15;;;;;;;;;;4958597;28;20544;-48
2021/01/28 14:04:34;;;;;;;21.43;18.77;;;;;;;;;;4960610;28;20314;-48
2021/01/28 14:07:00;;;;;;;19.23;17.33;;;;;;;;;;4968163;28;20235;-48
2021/01/28 14:09:25;;;;;;;25.80;20.77;;;;;;;;;;4967281;28;20171;-49
2021/01/28 14:11:51;;;;;;;20.90;18.73;;;;;;;;;;4947704;28;20330;-49
2021/01/28 14:14:16;;;;;;;20.37;17.40;;;;;;;;;;4965847;28;20608;-48
2021/01/28 14:16:41;;;;;;;18.93;16.10;;;;;;;;;;4965271;28;20202;-49
2021/01/28 14:19:06;;;;;;;19.37;17.47;;;;;;;;;;4965806;28;20193;-47
2021/01/28 14:21:33;;;;;;;18.40;16.47;;;;;;;;;;4966264;28;20597;-48
2021/01/28 14:23:58;;;;;;;19.10;17.20;;;;;;;;;;4965362;28;20847;-48
2021/01/28 14:26:23;;;;;;;17.70;15.90;;;;;;;;;;4957488;28;20672;-49
2021/01/28 14:28:48;;;;;;;20.35;18.20;;;;;;;;;;4967825;28;20190;-49
2021/01/28 14:31:14;;;;;;;18.13;16.03;;;;;;;;;;4963993;28;20186;-48
2021/01/28 14:33:39;;;;;;;19.80;17.70;;;;;;;;;;4965790;28;20714;-48
2021/01/28 14:36:04;;;;;;;18.83;16.43;;;;;;;;;;4967743;28;20178;-48
2021/01/28 14:38:29;;;;;;;20.53;17.03;;;;;;;;;;4968117;28;20959;-48
2021/01/28 14:40:54;;;;;;;18.02;16.20;;;;;;;;;;4974385;28;20305;-48
2021/01/28 14:43:20;;;;;;;20.40;18.13;;;;;;;;;;4968563;28;20203;-48
2021/01/28 14:45:45;;;;;;;25.23;18.97;;;;;;;;;;4968504;28;20297;-47